Time;durP1;ratioP1;P1;durP2;ratioP2;P2;SDS_P1;SDS_P2;PMS_P1;PMS_P2;Temp;Humidity;BMP_temperature;BMP_pressure;BME280_temperature;BME280_humidity;BME280_pressure;Samples;Min_cycle;Max_cycle;Signal;HPM_P1;HPM_P2
2022/05/13 12:03:12;;;;;;;9.38;2.85;;;;;;;;;;6094957;22;1747049;-86
2022/05/13 12:05:50;;;;;;;12.80;3.25;;;;;;;;;;6192745;23;20016;-86
2022/05/13 12:08:19;;;;;;;12.00;2.97;;;;;;;;;;6195358;23;20000;-86
2022/05/13 12:11:04;;;;;;;13.55;2.88;;;;;;;;;;6192865;23;20106;-86
2022/05/13 12:13:30;;;;;;;16.95;3.72;;;;;;;;;;6193216;23;20343;-85
2022/05/13 12:16:11;;;;;;;11.70;3.08;;;;;;;;;;6192734;23;20084;-87
2022/05/13 12:19:00;;;;;;;14.30;3.63;;;;;;;;;;6192034;23;20367;-86
2022/05/13 12:21:36;;;;;;;9.82;2.90;;;;;;;;;;6194559;23;20028;-87
2022/05/13 12:24:11;;;;;;;12.45;2.92;;;;;;;;;;6191915;23;20008;-87
2022/05/13 12:32:09;;;;;;;12.55;3.08;;;;;;;;;;6166384;22;20036;-94
2022/05/13 12:37:42;;;;;;;12.15;3.35;;;;;;;;;;6166229;23;20032;-92
2022/05/13 12:40:09;;;;;;;13.85;3.25;;;;;;;;;;6142673;23;20001;-93
2022/05/13 12:42:47;;;;;;;8.77;2.47;;;;;;;;;;6141067;23;20088;-94
2022/05/13 12:45:29;;;;;;;12.77;3.17;;;;;;;;;;6148619;23;20017;-95
2022/05/13 12:48:10;;;;;;;10.95;3.95;;;;;;;;;;6142298;23;20044;-94
2022/05/13 12:50:39;;;;;;;13.25;4.20;;;;;;;;;;6111036;23;20407;-93
2022/05/13 12:53:24;;;;;;;16.00;3.95;;;;;;;;;;6108217;23;20370;-92
2022/05/13 12:55:53;;;;;;;12.98;2.65;;;;;;;;;;6112306;23;20061;-93
2022/05/13 12:58:19;;;;;;;11.07;2.63;;;;;;;;;;6104780;23;20437;-92
2022/05/13 13:00:47;;;;;;;15.48;2.72;;;;;;;;;;6102416;23;20002;-93
2022/05/13 13:03:19;;;;;;;11.60;2.72;;;;;;;;;;6102905;23;20002;-92
2022/05/13 13:05:58;;;;;;;10.80;2.67;;;;;;;;;;6101775;23;20533;-94
2022/05/13 13:08:26;;;;;;;8.52;2.03;;;;;;;;;;6103914;23;20382;-92
2022/05/13 13:10:57;;;;;;;14.23;2.80;;;;;;;;;;6101864;23;20002;-94
2022/05/13 13:13:45;;;;;;;14.02;2.83;;;;;;;;;;6102999;23;20487;-92
2022/05/13 13:16:22;;;;;;;11.90;3.15;;;;;;;;;;6046102;23;20018;-94
2022/05/13 13:19:04;;;;;;;13.55;3.72;;;;;;;;;;6102443;23;20005;-94
2022/05/13 13:21:30;;;;;;;10.40;2.97;;;;;;;;;;6107202;23;20006;-93
2022/05/13 13:23:57;;;;;;;11.48;3.35;;;;;;;;;;6130443;23;20002;-94
2022/05/13 13:26:23;;;;;;;11.10;2.45;;;;;;;;;;6107161;23;20009;-93
2022/05/13 13:28:53;;;;;;;13.38;2.72;;;;;;;;;;6106019;23;20002;-94
2022/05/13 13:31:26;;;;;;;9.60;3.08;;;;;;;;;;6104306;23;20022;-94
2022/05/13 13:33:53;;;;;;;9.13;2.50;;;;;;;;;;6104191;23;20002;-94
2022/05/13 13:36:27;;;;;;;12.07;2.90;;;;;;;;;;6104967;23;20018;-94
2022/05/13 13:38:54;;;;;;;8.98;2.25;;;;;;;;;;6104878;23;20002;-94
2022/05/13 13:41:31;;;;;;;13.55;2.70;;;;;;;;;;6109038;23;20397;-93
2022/05/13 13:43:59;;;;;;;8.35;2.22;;;;;;;;;;6108749;23;20084;-93
2022/05/13 13:46:35;;;;;;;7.63;2.60;;;;;;;;;;6106978;23;20420;-94
2022/05/13 13:49:09;;;;;;;15.20;3.10;;;;;;;;;;6109410;23;20032;-94
2022/05/13 13:51:42;;;;;;;11.48;2.03;;;;;;;;;;6106867;23;20010;-94
2022/05/13 13:54:11;;;;;;;7.97;2.38;;;;;;;;;;6133788;23;19998;-94
2022/05/13 13:56:43;;;;;;;15.40;2.53;;;;;;;;;;6133240;23;20072;-94
2022/05/13 13:59:34;;;;;;;15.73;4.28;;;;;;;;;;6109871;23;20002;-93
2022/05/13 14:02:08;;;;;;;8.68;2.88;;;;;;;;;;6108692;23;19998;-93
2022/05/13 14:04:38;;;;;;;11.80;3.72;;;;;;;;;;6110166;23;20051;-93
2022/05/13 14:07:12;;;;;;;16.17;5.80;;;;;;;;;;6110585;23;20060;-93
2022/05/13 14:09:48;;;;;;;16.38;5.32;;;;;;;;;;6111568;23;20002;-93
2022/05/13 14:13:06;;;;;;;12.10;6.35;;;;;;;;;;6107808;23;20429;-93
2022/05/13 14:15:30;;;;;;;15.23;6.70;;;;;;;;;;6123034;23;20006;-93
2022/05/13 14:17:57;;;;;;;10.57;3.08;;;;;;;;;;6106594;23;20005;-94
2022/05/13 14:20:37;;;;;;;10.40;3.92;;;;;;;;;;6108213;23;20006;-94
2022/05/13 14:23:27;;;;;;;11.60;4.05;;;;;;;;;;6110363;23;20002;-96
2022/05/13 14:25:57;;;;;;;12.05;4.57;;;;;;;;;;6105568;23;20013;-95
2022/05/13 14:28:25;;;;;;;14.48;4.10;;;;;;;;;;6110982;23;20002;-93
2022/05/13 14:31:23;;;;;;;9.80;3.95;;;;;;;;;;6107573;23;20018;-93
2022/05/13 14:33:54;;;;;;;9.10;3.75;;;;;;;;;;6010750;23;20489;-94
2022/05/13 14:36:31;;;;;;;9.90;3.03;;;;;;;;;;6108467;23;20002;-92
2022/05/13 14:41:50;;;;;;;8.60;3.33;;;;;;;;;;6130654;23;20333;-95
2022/05/13 14:44:21;;;;;;;14.25;3.38;;;;;;;;;;6104723;23;20006;-95
2022/05/13 14:46:59;;;;;;;8.02;2.72;;;;;;;;;;6103790;23;20037;-93
2022/05/13 14:49:50;;;;;;;8.02;3.53;;;;;;;;;;6107392;23;20421;-95
2022/05/13 14:52:40;;;;;;;11.40;3.50;;;;;;;;;;6107952;23;20004;-95
2022/05/13 14:55:12;;;;;;;13.70;3.67;;;;;;;;;;6117323;23;20037;-94
2022/05/13 14:57:43;;;;;;;10.52;3.63;;;;;;;;;;6109961;23;20014;-95
2022/05/13 15:00:18;;;;;;;13.35;3.83;;;;;;;;;;6106435;23;20069;-94
2022/05/13 15:02:54;;;;;;;9.27;3.63;;;;;;;;;;6105737;23;20009;-95
2022/05/13 15:05:26;;;;;;;15.00;4.63;;;;;;;;;;6109925;23;20017;-94
2022/05/13 15:07:56;;;;;;;21.27;5.70;;;;;;;;;;6106311;23;20306;-95
2022/05/13 15:10:24;;;;;;;18.05;6.78;;;;;;;;;;6107061;23;20413;-95
2022/05/13 15:13:01;;;;;;;18.42;6.90;;;;;;;;;;6107156;23;20002;-94
2022/05/13 15:15:33;;;;;;;16.50;6.72;;;;;;;;;;6105459;23;19998;-94
2022/05/13 15:18:03;;;;;;;18.95;6.03;;;;;;;;;;6105191;23;20016;-94
2022/05/13 15:20:29;;;;;;;18.70;5.35;;;;;;;;;;6106196;23;20129;-94
2022/05/13 15:22:56;;;;;;;16.13;4.70;;;;;;;;;;6110811;23;20088;-95
2022/05/13 15:25:25;;;;;;;13.77;4.43;;;;;;;;;;6133862;23;20008;-93
2022/05/13 15:27:52;;;;;;;19.10;5.00;;;;;;;;;;6104198;23;20085;-92
2022/05/13 15:30:19;;;;;;;12.32;5.22;;;;;;;;;;6106061;23;20045;-94
2022/05/13 15:32:47;;;;;;;13.52;5.25;;;;;;;;;;6103909;23;20329;-94
2022/05/13 15:35:16;;;;;;;9.90;4.45;;;;;;;;;;6103542;23;20006;-94
2022/05/13 15:37:45;;;;;;;17.55;5.60;;;;;;;;;;6108014;23;20002;-94
2022/05/13 15:40:11;;;;;;;10.18;4.07;;;;;;;;;;6106733;23;20006;-94
2022/05/13 15:42:39;;;;;;;10.45;3.90;;;;;;;;;;6124066;23;20029;-85
2022/05/13 15:45:06;;;;;;;13.95;4.32;;;;;;;;;;6129808;23;20055;-85
2022/05/13 15:47:37;;;;;;;12.10;4.35;;;;;;;;;;6129547;23;20010;-85
2022/05/13 15:52:51;;;;;;;13.07;3.95;;;;;;;;;;6155705;23;20020;-85
2022/05/13 15:55:23;;;;;;;12.80;3.60;;;;;;;;;;6129253;23;20032;-85
2022/05/13 15:57:54;;;;;;;6.80;2.88;;;;;;;;;;6128594;23;20071;-84
2022/05/13 16:00:24;;;;;;;12.10;3.25;;;;;;;;;;6130597;23;20002;-86
2022/05/13 16:02:59;;;;;;;10.70;4.30;;;;;;;;;;6130191;23;20009;-85
2022/05/13 16:05:27;;;;;;;14.93;4.00;;;;;;;;;;6130864;23;20012;-85
2022/05/13 16:08:08;;;;;;;13.48;3.20;;;;;;;;;;6131420;23;20341;-85
2022/05/13 16:10:36;;;;;;;7.32;3.15;;;;;;;;;;6157376;23;20068;-84
2022/05/13 16:13:26;;;;;;;11.40;3.15;;;;;;;;;;6130324;23;20092;-85
2022/05/13 16:15:55;;;;;;;10.20;2.45;;;;;;;;;;6155991;23;20461;-85
2022/05/13 16:18:23;;;;;;;10.40;3.10;;;;;;;;;;6129841;23;20005;-84
2022/05/13 16:20:50;;;;;;;11.30;3.63;;;;;;;;;;6155623;23;20477;-85
2022/05/13 16:23:24;;;;;;;13.85;2.60;;;;;;;;;;6129863;23;20132;-85
2022/05/13 16:25:53;;;;;;;8.95;2.60;;;;;;;;;;6155855;23;20005;-85
2022/05/13 16:28:39;;;;;;;10.02;3.10;;;;;;;;;;6130018;23;20012;-85
2022/05/13 16:31:05;;;;;;;10.80;2.55;;;;;;;;;;6155827;23;20012;-85
2022/05/13 16:33:40;;;;;;;10.55;2.42;;;;;;;;;;6130407;23;20009;-85
2022/05/13 16:36:07;;;;;;;9.45;3.15;;;;;;;;;;6158562;23;20310;-86
2022/05/13 16:39:02;;;;;;;8.43;2.88;;;;;;;;;;6160133;23;20065;-84
2022/05/13 16:41:30;;;;;;;11.05;3.58;;;;;;;;;;6015049;23;20440;-85
2022/05/13 16:43:56;;;;;;;9.25;2.97;;;;;;;;;;6038666;23;20015;-86
2022/05/13 16:46:28;;;;;;;11.77;3.10;;;;;;;;;;6136491;23;20010;-86
2022/05/13 16:48:55;;;;;;;10.02;3.42;;;;;;;;;;6132305;23;20016;-86
2022/05/13 16:51:22;;;;;;;13.45;4.50;;;;;;;;;;6132290;23;20009;-86
2022/05/13 16:53:49;;;;;;;11.43;3.83;;;;;;;;;;6157918;23;20006;-86
2022/05/13 16:56:15;;;;;;;12.40;4.07;;;;;;;;;;6158331;23;20005;-86
2022/05/13 16:58:41;;;;;;;13.90;4.70;;;;;;;;;;6131931;23;20006;-84
2022/05/13 17:01:08;;;;;;;9.68;4.45;;;;;;;;;;6157388;23;20005;-84
2022/05/13 17:03:34;;;;;;;8.90;3.47;;;;;;;;;;6131429;23;20441;-83
2022/05/13 17:06:14;;;;;;;12.00;4.97;;;;;;;;;;6131404;23;20013;-84
2022/05/13 17:17:15;;;;;;;16.65;6.45;;;;;;;;;;6159440;23;20021;-84
2022/05/13 17:19:45;;;;;;;13.05;6.90;;;;;;;;;;6133978;23;19998;-84
2022/05/13 17:22:11;;;;;;;14.65;7.05;;;;;;;;;;6133884;23;20002;-84
2022/05/13 17:24:48;;;;;;;16.95;8.00;;;;;;;;;;6158872;23;20073;-83
2022/05/13 17:27:28;;;;;;;11.10;7.00;;;;;;;;;;6159657;23;20341;-82
2022/05/13 17:29:58;;;;;;;18.77;7.35;;;;;;;;;;6134234;23;20040;-82
2022/05/13 17:32:25;;;;;;;14.00;8.30;;;;;;;;;;6159055;23;20001;-83
2022/05/13 17:34:52;;;;;;;19.77;8.13;;;;;;;;;;6133661;23;20010;-82
2022/05/13 17:37:29;;;;;;;15.77;8.13;;;;;;;;;;6159220;23;20006;-82
2022/05/13 17:40:05;;;;;;;20.13;10.20;;;;;;;;;;6160232;23;20001;-83
2022/05/13 17:42:57;;;;;;;21.27;12.02;;;;;;;;;;6159122;23;20033;-83
2022/05/13 17:45:27;;;;;;;20.92;10.88;;;;;;;;;;6158294;23;20028;-84
2022/05/13 17:47:56;;;;;;;18.35;11.52;;;;;;;;;;6156610;23;20009;-84
2022/05/13 17:50:23;;;;;;;23.63;11.15;;;;;;;;;;6132604;23;20029;-84
2022/05/13 17:52:59;;;;;;;20.95;12.82;;;;;;;;;;6131889;23;20001;-83
2022/05/13 17:55:26;;;;;;;18.33;10.23;;;;;;;;;;6132232;23;20056;-84
2022/05/13 17:57:53;;;;;;;19.70;9.25;;;;;;;;;;6132400;23;20002;-84
2022/05/13 18:00:23;;;;;;;15.25;7.93;;;;;;;;;;6133060;23;20069;-84
2022/05/13 18:02:53;;;;;;;15.38;8.15;;;;;;;;;;6131420;23;20005;-84
2022/05/13 18:05:19;;;;;;;15.95;8.50;;;;;;;;;;6132296;23;20012;-84
2022/05/13 18:07:58;;;;;;;16.33;7.57;;;;;;;;;;6129747;23;20008;-84
2022/05/13 18:10:24;;;;;;;14.73;7.65;;;;;;;;;;6132583;23;20006;-85
2022/05/13 18:12:52;;;;;;;14.23;7.30;;;;;;;;;;6131726;23;20745;-85
2022/05/13 18:15:18;;;;;;;18.88;8.02;;;;;;;;;;6156789;23;20001;-86
2022/05/13 18:17:49;;;;;;;15.57;7.15;;;;;;;;;;6157181;23;20005;-86
2022/05/13 18:20:16;;;;;;;14.45;6.90;;;;;;;;;;6131996;23;20001;-85
2022/05/13 18:22:59;;;;;;;13.93;6.10;;;;;;;;;;6157158;23;20009;-85
2022/05/13 18:25:26;;;;;;;11.65;6.13;;;;;;;;;;6157484;23;20314;-85
2022/05/13 18:28:11;;;;;;;16.02;5.95;;;;;;;;;;6156813;23;20437;-84
2022/05/13 18:30:37;;;;;;;11.63;6.40;;;;;;;;;;6130581;23;20077;-85
2022/05/13 18:33:16;;;;;;;10.93;5.75;;;;;;;;;;6130642;23;20783;-84
2022/05/13 18:35:43;;;;;;;13.00;5.90;;;;;;;;;;6156300;23;20060;-85
2022/05/13 18:38:09;;;;;;;10.95;6.90;;;;;;;;;;6131673;23;20001;-85
2022/05/13 18:46:35;;;;;;;13.30;6.50;;;;;;;;;;6156808;23;20020;-85
2022/05/13 18:49:01;;;;;;;13.57;6.30;;;;;;;;;;6131038;23;20582;-84
2022/05/13 18:51:29;;;;;;;12.93;7.97;;;;;;;;;;6129148;23;20343;-85
2022/05/13 18:53:56;;;;;;;15.80;9.18;;;;;;;;;;6130285;23;20381;-85
2022/05/13 18:56:32;;;;;;;18.23;9.00;;;;;;;;;;6129363;23;20037;-85
2022/05/13 18:58:59;;;;;;;17.17;8.05;;;;;;;;;;6130413;23;20016;-85
2022/05/13 19:01:42;;;;;;;14.05;8.18;;;;;;;;;;6129393;23;20433;-85
2022/05/13 19:04:09;;;;;;;14.00;7.53;;;;;;;;;;6130286;23;20425;-85
2022/05/13 19:06:36;;;;;;;16.27;8.40;;;;;;;;;;6130098;23;20006;-85
2022/05/13 19:09:03;;;;;;;19.42;10.15;;;;;;;;;;6131711;23;20056;-85
2022/05/13 19:11:30;;;;;;;14.88;8.52;;;;;;;;;;6159799;23;20009;-86
2022/05/13 19:14:01;;;;;;;13.57;7.45;;;;;;;;;;6159953;23;20005;-86
2022/05/13 19:16:28;;;;;;;14.13;7.30;;;;;;;;;;6132363;23;20447;-85
2022/05/13 19:18:55;;;;;;;12.30;7.03;;;;;;;;;;6159833;23;20060;-85
2022/05/13 19:21:29;;;;;;;15.88;7.03;;;;;;;;;;6131456;23;20045;-85
2022/05/13 19:23:56;;;;;;;12.70;6.75;;;;;;;;;;6158967;23;19998;-85
2022/05/13 19:26:24;;;;;;;15.18;6.85;;;;;;;;;;6158620;23;20002;-85
2022/05/13 19:28:50;;;;;;;16.30;7.40;;;;;;;;;;6130299;23;20092;-85
2022/05/13 19:31:18;;;;;;;14.13;7.18;;;;;;;;;;6132738;23;20392;-85
2022/05/13 19:33:56;;;;;;;14.23;7.20;;;;;;;;;;6131707;23;20056;-85
2022/05/13 19:36:23;;;;;;;14.48;8.02;;;;;;;;;;6132435;23;20425;-85
2022/05/13 19:38:50;;;;;;;18.60;7.55;;;;;;;;;;6159547;23;20005;-85
2022/05/13 19:41:17;;;;;;;15.38;7.75;;;;;;;;;;6158021;23;20005;-86
2022/05/13 19:43:44;;;;;;;16.20;9.05;;;;;;;;;;6130234;23;20010;-85
2022/05/13 19:46:13;;;;;;;17.40;7.85;;;;;;;;;;6132392;23;20001;-86
2022/05/13 19:48:40;;;;;;;16.90;7.82;;;;;;;;;;6128727;23;20029;-86
2022/05/13 19:51:21;;;;;;;16.42;7.82;;;;;;;;;;6130685;23;20006;-85
2022/05/13 19:53:47;;;;;;;16.70;7.82;;;;;;;;;;6129178;23;20013;-85
2022/05/13 19:56:49;;;;;;;16.73;7.93;;;;;;;;;;6156361;23;20029;-86
2022/05/13 19:59:16;;;;;;;13.05;7.07;;;;;;;;;;6130368;23;20303;-86
2022/05/13 20:01:53;;;;;;;14.02;7.47;;;;;;;;;;6128742;23;20002;-86
2022/05/13 20:04:19;;;;;;;17.10;8.02;;;;;;;;;;6128904;23;20012;-86
2022/05/13 20:12:23;;;;;;;21.88;7.97;;;;;;;;;;6158197;23;20056;-86
2022/05/13 20:14:55;;;;;;;17.38;7.53;;;;;;;;;;6157695;23;20749;-86
2022/05/13 20:17:21;;;;;;;17.25;7.95;;;;;;;;;;6131588;23;20436;-86
2022/05/13 20:23:00;;;;;;;13.90;7.10;;;;;;;;;;6157655;23;20048;-86
2022/05/13 20:25:27;;;;;;;18.80;7.18;;;;;;;;;;6156579;23;20506;-86
2022/05/13 20:27:53;;;;;;;15.20;7.60;;;;;;;;;;6130548;23;20024;-86
2022/05/13 20:30:28;;;;;;;12.02;7.50;;;;;;;;;;6130631;23;20006;-86
2022/05/13 20:32:55;;;;;;;13.40;7.65;;;;;;;;;;6131552;23;20011;-86
2022/05/13 20:35:23;;;;;;;16.60;7.38;;;;;;;;;;6156410;23;20079;-85
2022/05/13 20:37:49;;;;;;;18.33;6.95;;;;;;;;;;6155799;23;20010;-86
2022/05/13 20:40:39;;;;;;;15.73;7.38;;;;;;;;;;6130904;23;20002;-86
2022/05/13 20:43:08;;;;;;;13.57;6.55;;;;;;;;;;6155934;23;20711;-85
2022/05/13 20:45:35;;;;;;;12.40;6.90;;;;;;;;;;6156517;23;20747;-86
2022/05/13 20:48:15;;;;;;;14.68;7.18;;;;;;;;;;6126357;23;20377;-86
2022/05/13 20:50:41;;;;;;;16.55;6.43;;;;;;;;;;6130319;23;20002;-86
2022/05/13 20:53:23;;;;;;;16.15;7.65;;;;;;;;;;6156091;23;20001;-86
2022/05/13 20:55:49;;;;;;;13.30;7.32;;;;;;;;;;6130752;23;20010;-86
2022/05/13 20:58:19;;;;;;;13.85;7.28;;;;;;;;;;6129834;23;20329;-85
2022/05/13 21:00:45;;;;;;;14.02;7.55;;;;;;;;;;6130268;23;20036;-86
2022/05/13 21:03:18;;;;;;;13.18;6.38;;;;;;;;;;6129469;23;20044;-86
2022/05/13 21:05:44;;;;;;;12.23;7.00;;;;;;;;;;6156345;23;20112;-86
2022/05/13 21:08:13;;;;;;;11.43;6.05;;;;;;;;;;6130742;23;20088;-86
2022/05/13 21:10:55;;;;;;;12.13;6.97;;;;;;;;;;6130950;23;20089;-87
2022/05/13 21:13:21;;;;;;;15.65;7.10;;;;;;;;;;6129461;23;20382;-86
2022/05/13 21:15:50;;;;;;;12.98;7.05;;;;;;;;;;6129677;23;20013;-86
2022/05/13 21:18:18;;;;;;;12.02;6.05;;;;;;;;;;6129552;23;20002;-86
2022/05/13 21:20:54;;;;;;;13.88;6.13;;;;;;;;;;6130303;23;20009;-86
2022/05/13 21:38:34;;;;;;;12.82;7.00;;;;;;;;;;6186108;23;20027;-86
2022/05/13 21:41:28;;;;;;;11.93;6.70;;;;;;;;;;6185620;23;20001;-86
2022/05/13 21:43:54;;;;;;;13.63;7.97;;;;;;;;;;6184834;23;20051;-86
2022/05/13 21:46:23;;;;;;;11.15;7.03;;;;;;;;;;6160039;23;20001;-86
2022/05/13 21:49:12;;;;;;;12.05;6.55;;;;;;;;;;6184812;23;20012;-86
2022/05/13 21:54:36;;;;;;;14.55;7.15;;;;;;;;;;6183247;23;20119;-86
2022/05/13 21:57:03;;;;;;;13.48;6.85;;;;;;;;;;6158961;23;20013;-86
2022/05/13 21:59:34;;;;;;;12.43;7.40;;;;;;;;;;6158966;23;20008;-86
2022/05/13 22:02:00;;;;;;;12.40;7.03;;;;;;;;;;6159418;23;20785;-86
2022/05/13 22:04:35;;;;;;;13.50;7.40;;;;;;;;;;6184814;23;19997;-86
2022/05/13 22:07:03;;;;;;;13.50;6.78;;;;;;;;;;6186303;23;20353;-86
2022/05/13 22:09:30;;;;;;;17.75;6.97;;;;;;;;;;6159656;23;20485;-87
2022/05/13 22:12:06;;;;;;;13.68;6.75;;;;;;;;;;6157947;23;20031;-86
2022/05/13 22:14:32;;;;;;;13.43;7.90;;;;;;;;;;6158915;23;20012;-86
2022/05/13 22:17:20;;;;;;;12.10;6.78;;;;;;;;;;6159590;23;20335;-86
2022/05/13 22:19:47;;;;;;;12.82;7.13;;;;;;;;;;6159169;23;20321;-86
2022/05/13 22:22:17;;;;;;;13.57;7.35;;;;;;;;;;6157529;23;20005;-85
2022/05/13 22:24:44;;;;;;;13.88;6.85;;;;;;;;;;6156651;23;20092;-86
2022/05/13 22:27:30;;;;;;;14.82;7.20;;;;;;;;;;6184252;23;20005;-86
2022/05/13 22:29:56;;;;;;;12.75;7.60;;;;;;;;;;6184176;23;20055;-86
2022/05/13 22:32:24;;;;;;;12.88;7.20;;;;;;;;;;6158541;23;20020;-86
2022/05/13 22:34:50;;;;;;;15.45;8.02;;;;;;;;;;6157838;23;20017;-86
2022/05/13 22:37:31;;;;;;;16.85;7.45;;;;;;;;;;6185590;23;20009;-86
2022/05/13 22:39:57;;;;;;;11.48;6.82;;;;;;;;;;6159103;23;20080;-86
2022/05/13 22:42:24;;;;;;;13.32;7.55;;;;;;;;;;6155768;23;20005;-86
2022/05/13 22:44:50;;;;;;;11.02;7.50;;;;;;;;;;6159148;23;20009;-86
2022/05/13 22:47:16;;;;;;;15.85;7.43;;;;;;;;;;6157997;23;20060;-85
2022/05/13 22:49:43;;;;;;;11.23;7.80;;;;;;;;;;6156159;23;20015;-87
2022/05/13 22:52:09;;;;;;;11.82;6.95;;;;;;;;;;6155652;23;20463;-86
2022/05/13 22:54:41;;;;;;;13.77;7.22;;;;;;;;;;6157294;23;20475;-86
2022/05/13 22:57:08;;;;;;;12.65;7.32;;;;;;;;;;6184603;23;20450;-85
2022/05/13 23:00:05;;;;;;;14.30;7.97;;;;;;;;;;6158830;23;20005;-86
2022/05/13 23:02:32;;;;;;;15.10;7.75;;;;;;;;;;6155718;23;20005;-86
2022/05/13 23:05:16;;;;;;;13.80;7.50;;;;;;;;;;6185015;23;20416;-86
2022/05/13 23:13:23;;;;;;;15.50;8.02;;;;;;;;;;6180413;23;20024;-86
2022/05/13 23:15:49;;;;;;;11.13;7.47;;;;;;;;;;6153610;23;20009;-86
2022/05/13 23:18:19;;;;;;;10.32;6.88;;;;;;;;;;6156019;23;20451;-86
2022/05/13 23:20:46;;;;;;;15.40;8.50;;;;;;;;;;6158102;23;20009;-86
2022/05/13 23:23:31;;;;;;;13.63;8.98;;;;;;;;;;6182178;23;20071;-86
2022/05/13 23:25:57;;;;;;;11.95;8.23;;;;;;;;;;6185078;23;20076;-87
2022/05/13 23:28:55;;;;;;;15.30;8.38;;;;;;;;;;6158744;23;20005;-87
2022/05/13 23:31:30;;;;;;;15.80;7.93;;;;;;;;;;6056170;23;20018;-86
2022/05/13 23:34:18;;;;;;;13.27;7.47;;;;;;;;;;6158416;23;20016;-87
2022/05/13 23:36:45;;;;;;;15.65;7.53;;;;;;;;;;6159072;23;20020;-86
2022/05/13 23:39:11;;;;;;;13.45;8.13;;;;;;;;;;6159422;23;20063;-86
2022/05/13 23:41:38;;;;;;;13.35;8.95;;;;;;;;;;6157366;23;20008;-86
2022/05/13 23:44:05;;;;;;;13.68;8.13;;;;;;;;;;6155308;23;20013;-86
2022/05/13 23:46:32;;;;;;;12.23;8.20;;;;;;;;;;6184298;23;20008;-87
2022/05/13 23:49:01;;;;;;;18.15;10.13;;;;;;;;;;6185513;23;20005;-86
2022/05/13 23:51:28;;;;;;;17.90;11.05;;;;;;;;;;6158271;23;20059;-86
2022/05/13 23:56:43;;;;;;;20.10;12.73;;;;;;;;;;6184640;23;20388;-87
2022/05/13 23:59:10;;;;;;;23.73;13.18;;;;;;;;;;6184516;23;20001;-86
